Gallup Mills, Vermont
Current Conditions -  °F | °C
As of 8:35 PM on Friday 24 Oct 2014 (Local Time) from KCDA Reporting Station
Overcast Overcast  
Wind Chill: 40°   Ceiling: 3800
Heat Index: 43°   Visibility: 10mi
Dew Point: 35°   Wind: 6mph
Humidity: 72%   Direction: 310°NW
Pressure: 29.81"   Gusts: NA
Location:  44.5627°N, 71.7775°W
Report Text: KCDA 250035Z AUTO 31005KT 10SM SCT021 BKN038 OVC080 06/02 A2981 RMK AO2 T00630016
Loading
Personal Weather Stations






























Interactive Weather Map
Tropical Storm Tracking
New forecast layout! Learn more

10-Day Weather Forecast

Advertisements
Track Severe Weather on mobile